Terminal Aerodrome Forecast
Issued by NWS Brownsville, TX

Home | Current Version | Previous Version | Text Only | Print | Product List | Glossary On
Versions: 1 2 3 4 5 6 7 8 9 10 11 12 13 14 15 16 17 18 19 20 21 22 23
000
FTUS44 KBRO 302327
TAFBRO
TAF
KBRO 302327Z 3100/3124 13012KT P6SM FEW024
     FM310300 12006KT P6SM OVC019
     FM311400 14015KT P6SM BKN030 PROB30 3114/3120 P6SM TS BKN020CB
     FM312000 15016KT P6SM BKN250=

USA.gov is the U.S. government's official web portal to all federal, state and local government web resources and services.